Decoded Metar for KJQF (CONCORD REG ARPT in NC, USA) (IATA:JQF) | Meteo·Mobile Aviation Weather
aviador You're here:

KJQF Decoded Metar

CONCORD REG ARPT in NC, USA
Report Time2018-10-15 18:50:00
UTC Time2018-10-15 19:46:20
Flight Rules vfr VFR
Wind220° at 12 Gusting to 16 kt
W.Decomp.*RWY 20: 10.8 kt HW 5.3 kt RCW
W.Rank220° ranks 2
Current wind is above 220° avg. (7.2)
Visibility9999 m
Phenomena:N/A
Clouds:Scattered 029 Hf
Scattered 035 Hf
Expected CloudBase > 3,600 ft AGL from Temp-Dew spread
CeilingNone
Temp27°C (ISA +13)
Dew Point18°C (58% RH)
Heat Index27.9°C
AAT25.5°C
QNH1021 hPa
Density Alt2,238 ft
Elevation689 ft
Report Wrong Elevation
Raw Report
KJQF 151850Z 22012G16KT 10SM SCT029 SCT035 27/18 A3016=

Extra information for KJQF:More info

Metar Taf Metar & Taf Last 4 Metars F.Rules Stats Wind Profile Meteogram Temp Stats Airport Information Weather charts Add Link Nearby VenuesMetar ALERT Operation Metar Decoded Social comments

AIRNAV info for KJQF